sensor_id;sensor_type;location;lat;lon;timestamp;P1;durP1;ratioP1;P2;durP2;ratioP2
20623;SDS011;10471;42.736;23.346;2024-03-22T00:02:15;32.57;;;15.47;;
20623;SDS011;10471;42.736;23.346;2024-03-22T00:04:40;27.90;;;15.20;;
20623;SDS011;10471;42.736;23.346;2024-03-22T00:07:06;30.10;;;15.83;;
20623;SDS011;10471;42.736;23.346;2024-03-22T00:09:31;28.73;;;17.60;;
20623;SDS011;10471;42.736;23.346;2024-03-22T00:11:57;132.60;;;120.23;;
20623;SDS011;10471;42.736;23.346;2024-03-22T00:14:22;29.47;;;16.97;;
20623;SDS011;10471;42.736;23.346;2024-03-22T00:16:48;31.03;;;14.70;;
20623;SDS011;10471;42.736;23.346;2024-03-22T00:19:13;34.70;;;16.33;;
20623;SDS011;10471;42.736;23.346;2024-03-22T00:21:39;30.37;;;14.80;;
20623;SDS011;10471;42.736;23.346;2024-03-22T00:24:04;33.50;;;15.90;;
20623;SDS011;10471;42.736;23.346;2024-03-22T00:26:30;24.43;;;13.43;;
20623;SDS011;10471;42.736;23.346;2024-03-22T00:28:55;27.67;;;13.83;;
20623;SDS011;10471;42.736;23.346;2024-03-22T00:31:23;23.97;;;13.43;;
20623;SDS011;10471;42.736;23.346;2024-03-22T00:33:48;30.17;;;14.93;;
20623;SDS011;10471;42.736;23.346;2024-03-22T00:36:14;27.40;;;16.30;;
20623;SDS011;10471;42.736;23.346;2024-03-22T00:38:39;32.60;;;16.63;;
20623;SDS011;10471;42.736;23.346;2024-03-22T00:41:04;40.40;;;18.63;;
20623;SDS011;10471;42.736;23.346;2024-03-22T00:43:30;48.23;;;20.40;;
20623;SDS011;10471;42.736;23.346;2024-03-22T00:45:55;40.40;;;20.43;;
20623;SDS011;10471;42.736;23.346;2024-03-22T00:48:21;43.13;;;19.63;;
20623;SDS011;10471;42.736;23.346;2024-03-22T00:50:46;40.37;;;19.43;;
20623;SDS011;10471;42.736;23.346;2024-03-22T00:53:12;45.20;;;21.63;;
20623;SDS011;10471;42.736;23.346;2024-03-22T00:55:37;39.10;;;18.20;;
20623;SDS011;10471;42.736;23.346;2024-03-22T00:58:03;35.10;;;17.37;;
20623;SDS011;10471;42.736;23.346;2024-03-22T01:00:28;35.67;;;18.20;;
20623;SDS011;10471;42.736;23.346;2024-03-22T01:02:54;34.93;;;16.53;;
20623;SDS011;10471;42.736;23.346;2024-03-22T01:05:19;33.67;;;17.03;;
20623;SDS011;10471;42.736;23.346;2024-03-22T01:07:45;37.63;;;18.10;;
20623;SDS011;10471;42.736;23.346;2024-03-22T01:10:10;45.90;;;21.17;;
20623;SDS011;10471;42.736;23.346;2024-03-22T01:12:36;40.13;;;19.40;;
20623;SDS011;10471;42.736;23.346;2024-03-22T01:15:03;46.83;;;24.63;;
20623;SDS011;10471;42.736;23.346;2024-03-22T01:17:28;40.80;;;23.10;;
20623;SDS011;10471;42.736;23.346;2024-03-22T01:19:54;45.87;;;25.67;;
20623;SDS011;10471;42.736;23.346;2024-03-22T01:22:19;44.53;;;22.03;;
20623;SDS011;10471;42.736;23.346;2024-03-22T01:24:45;39.83;;;21.83;;
20623;SDS011;10471;42.736;23.346;2024-03-22T01:27:10;43.50;;;22.40;;
20623;SDS011;10471;42.736;23.346;2024-03-22T01:29:36;43.23;;;21.90;;
20623;SDS011;10471;42.736;23.346;2024-03-22T01:32:02;45.80;;;22.70;;
20623;SDS011;10471;42.736;23.346;2024-03-22T01:34:28;49.27;;;22.80;;
20623;SDS011;10471;42.736;23.346;2024-03-22T01:36:53;45.07;;;20.87;;
20623;SDS011;10471;42.736;23.346;2024-03-22T01:39:20;41.17;;;21.23;;
20623;SDS011;10471;42.736;23.346;2024-03-22T01:41:49;42.37;;;20.30;;
20623;SDS011;10471;42.736;23.346;2024-03-22T01:44:15;34.53;;;20.43;;
20623;SDS011;10471;42.736;23.346;2024-03-22T01:46:41;45.03;;;20.97;;
20623;SDS011;10471;42.736;23.346;2024-03-22T01:49:08;41.87;;;19.80;;
20623;SDS011;10471;42.736;23.346;2024-03-22T01:51:36;41.67;;;19.47;;
20623;SDS011;10471;42.736;23.346;2024-03-22T01:54:02;40.97;;;23.03;;
20623;SDS011;10471;42.736;23.346;2024-03-22T01:56:29;44.67;;;22.63;;
20623;SDS011;10471;42.736;23.346;2024-03-22T01:58:55;38.63;;;20.13;;
20623;SDS011;10471;42.736;23.346;2024-03-22T02:01:21;37.43;;;20.63;;
20623;SDS011;10471;42.736;23.346;2024-03-22T02:03:47;43.17;;;21.17;;
20623;SDS011;10471;42.736;23.346;2024-03-22T02:06:12;38.63;;;20.73;;
20623;SDS011;10471;42.736;23.346;2024-03-22T02:08:38;51.80;;;23.83;;
20623;SDS011;10471;42.736;23.346;2024-03-22T02:11:05;58.63;;;29.37;;
20623;SDS011;10471;42.736;23.346;2024-03-22T02:13:31;63.53;;;29.63;;
20623;SDS011;10471;42.736;23.346;2024-03-22T02:15:56;41.27;;;21.33;;
20623;SDS011;10471;42.736;23.346;2024-03-22T02:18:22;36.50;;;18.97;;
20623;SDS011;10471;42.736;23.346;2024-03-22T02:20:48;37.57;;;18.40;;
20623;SDS011;10471;42.736;23.346;2024-03-22T02:23:13;40.93;;;18.50;;
20623;SDS011;10471;42.736;23.346;2024-03-22T02:25:38;37.97;;;20.17;;
20623;SDS011;10471;42.736;23.346;2024-03-22T02:28:04;37.17;;;20.00;;
20623;SDS011;10471;42.736;23.346;2024-03-22T02:30:29;40.47;;;22.00;;
20623;SDS011;10471;42.736;23.346;2024-03-22T02:32:55;36.73;;;20.17;;
20623;SDS011;10471;42.736;23.346;2024-03-22T02:35:20;39.03;;;20.90;;
20623;SDS011;10471;42.736;23.346;2024-03-22T02:37:45;34.47;;;19.30;;
20623;SDS011;10471;42.736;23.346;2024-03-22T02:40:11;29.03;;;15.37;;
20623;SDS011;10471;42.736;23.346;2024-03-22T02:42:37;37.17;;;16.30;;
20623;SDS011;10471;42.736;23.346;2024-03-22T02:45:02;52.13;;;23.83;;
20623;SDS011;10471;42.736;23.346;2024-03-22T02:47:28;35.80;;;17.97;;
20623;SDS011;10471;42.736;23.346;2024-03-22T02:49:53;36.47;;;18.23;;
20623;SDS011;10471;42.736;23.346;2024-03-22T02:52:18;37.13;;;17.37;;
20623;SDS011;10471;42.736;23.346;2024-03-22T02:54:44;32.97;;;16.53;;
20623;SDS011;10471;42.736;23.346;2024-03-22T02:57:09;35.70;;;17.57;;
20623;SDS011;10471;42.736;23.346;2024-03-22T02:59:35;36.60;;;18.33;;
20623;SDS011;10471;42.736;23.346;2024-03-22T03:02:00;34.33;;;17.53;;
20623;SDS011;10471;42.736;23.346;2024-03-22T03:04:25;36.90;;;17.67;;
20623;SDS011;10471;42.736;23.346;2024-03-22T03:06:51;30.33;;;16.13;;
20623;SDS011;10471;42.736;23.346;2024-03-22T03:09:16;36.13;;;15.60;;
20623;SDS011;10471;42.736;23.346;2024-03-22T03:11:41;32.50;;;16.40;;
20623;SDS011;10471;42.736;23.346;2024-03-22T03:14:07;37.33;;;17.07;;
20623;SDS011;10471;42.736;23.346;2024-03-22T03:16:32;30.60;;;15.40;;
20623;SDS011;10471;42.736;23.346;2024-03-22T03:18:58;32.70;;;16.13;;
20623;SDS011;10471;42.736;23.346;2024-03-22T03:21:23;37.00;;;16.30;;
20623;SDS011;10471;42.736;23.346;2024-03-22T03:23:48;30.97;;;15.80;;
20623;SDS011;10471;42.736;23.346;2024-03-22T03:26:14;31.50;;;16.97;;
20623;SDS011;10471;42.736;23.346;2024-03-22T03:28:39;30.37;;;17.07;;
20623;SDS011;10471;42.736;23.346;2024-03-22T03:31:05;29.27;;;15.63;;
20623;SDS011;10471;42.736;23.346;2024-03-22T03:33:30;36.20;;;17.60;;
20623;SDS011;10471;42.736;23.346;2024-03-22T03:35:55;43.17;;;18.63;;
20623;SDS011;10471;42.736;23.346;2024-03-22T03:38:21;36.53;;;18.07;;
20623;SDS011;10471;42.736;23.346;2024-03-22T03:40:47;39.07;;;19.40;;
20623;SDS011;10471;42.736;23.346;2024-03-22T03:43:12;34.37;;;16.97;;
20623;SDS011;10471;42.736;23.346;2024-03-22T03:45:38;37.37;;;18.53;;
20623;SDS011;10471;42.736;23.346;2024-03-22T03:48:03;36.60;;;17.50;;
20623;SDS011;10471;42.736;23.346;2024-03-22T03:50:29;35.20;;;18.20;;
20623;SDS011;10471;42.736;23.346;2024-03-22T03:52:54;36.00;;;18.07;;
20623;SDS011;10471;42.736;23.346;2024-03-22T03:55:20;49.47;;;24.10;;
20623;SDS011;10471;42.736;23.346;2024-03-22T03:57:45;40.37;;;21.13;;
20623;SDS011;10471;42.736;23.346;2024-03-22T04:00:11;51.20;;;25.23;;
20623;SDS011;10471;42.736;23.346;2024-03-22T04:02:37;70.23;;;35.43;;
20623;SDS011;10471;42.736;23.346;2024-03-22T04:05:02;52.00;;;27.53;;
20623;SDS011;10471;42.736;23.346;2024-03-22T04:07:27;59.37;;;27.67;;
20623;SDS011;10471;42.736;23.346;2024-03-22T04:09:54;69.87;;;34.17;;
20623;SDS011;10471;42.736;23.346;2024-03-22T04:12:19;71.20;;;33.83;;
20623;SDS011;10471;42.736;23.346;2024-03-22T04:14:45;62.93;;;30.30;;
20623;SDS011;10471;42.736;23.346;2024-03-22T04:17:10;58.60;;;25.97;;
20623;SDS011;10471;42.736;23.346;2024-03-22T04:19:35;57.83;;;27.30;;
20623;SDS011;10471;42.736;23.346;2024-03-22T04:22:01;58.67;;;30.30;;
20623;SDS011;10471;42.736;23.346;2024-03-22T04:24:26;64.27;;;31.70;;
20623;SDS011;10471;42.736;23.346;2024-03-22T04:26:51;64.27;;;35.90;;
20623;SDS011;10471;42.736;23.346;2024-03-22T04:29:17;63.77;;;33.90;;
20623;SDS011;10471;42.736;23.346;2024-03-22T04:31:42;69.20;;;34.53;;
20623;SDS011;10471;42.736;23.346;2024-03-22T04:34:07;79.17;;;35.80;;
20623;SDS011;10471;42.736;23.346;2024-03-22T04:36:33;87.80;;;34.07;;
20623;SDS011;10471;42.736;23.346;2024-03-22T04:39:00;76.30;;;28.37;;
20623;SDS011;10471;42.736;23.346;2024-03-22T04:41:25;39.53;;;20.33;;
20623;SDS011;10471;42.736;23.346;2024-03-22T04:43:50;41.67;;;20.87;;
20623;SDS011;10471;42.736;23.346;2024-03-22T04:46:16;49.53;;;23.00;;
20623;SDS011;10471;42.736;23.346;2024-03-22T04:48:41;66.20;;;27.17;;
20623;SDS011;10471;42.736;23.346;2024-03-22T04:51:06;53.17;;;23.43;;
20623;SDS011;10471;42.736;23.346;2024-03-22T04:53:32;46.33;;;23.13;;
20623;SDS011;10471;42.736;23.346;2024-03-22T04:55:57;40.57;;;21.87;;
20623;SDS011;10471;42.736;23.346;2024-03-22T04:58:22;69.27;;;31.13;;
20623;SDS011;10471;42.736;23.346;2024-03-22T05:00:48;56.70;;;24.87;;
20623;SDS011;10471;42.736;23.346;2024-03-22T05:03:15;65.90;;;26.07;;
20623;SDS011;10471;42.736;23.346;2024-03-22T05:05:41;61.87;;;25.60;;
20623;SDS011;10471;42.736;23.346;2024-03-22T05:08:07;79.70;;;32.10;;
20623;SDS011;10471;42.736;23.346;2024-03-22T05:10:33;64.97;;;27.07;;
20623;SDS011;10471;42.736;23.346;2024-03-22T05:12:59;128.50;;;46.37;;
20623;SDS011;10471;42.736;23.346;2024-03-22T05:15:25;59.03;;;23.93;;
20623;SDS011;10471;42.736;23.346;2024-03-22T05:17:51;189.53;;;73.93;;
20623;SDS011;10471;42.736;23.346;2024-03-22T05:20:18;74.23;;;24.27;;
20623;SDS011;10471;42.736;23.346;2024-03-22T05:22:43;62.50;;;21.90;;
20623;SDS011;10471;42.736;23.346;2024-03-22T05:25:09;57.17;;;22.60;;
20623;SDS011;10471;42.736;23.346;2024-03-22T05:27:35;69.83;;;24.37;;
20623;SDS011;10471;42.736;23.346;2024-03-22T05:30:00;56.47;;;28.67;;
20623;SDS011;10471;42.736;23.346;2024-03-22T05:32:26;66.50;;;26.53;;
20623;SDS011;10471;42.736;23.346;2024-03-22T05:34:52;55.63;;;24.70;;
20623;SDS011;10471;42.736;23.346;2024-03-22T05:37:17;64.03;;;30.23;;
20623;SDS011;10471;42.736;23.346;2024-03-22T05:39:43;57.53;;;33.67;;
20623;SDS011;10471;42.736;23.346;2024-03-22T05:42:08;62.67;;;31.67;;
20623;SDS011;10471;42.736;23.346;2024-03-22T05:44:34;39.37;;;17.33;;
20623;SDS011;10471;42.736;23.346;2024-03-22T05:46:59;42.80;;;18.80;;
20623;SDS011;10471;42.736;23.346;2024-03-22T05:49:25;36.13;;;17.20;;
20623;SDS011;10471;42.736;23.346;2024-03-22T05:51:50;32.70;;;15.83;;
20623;SDS011;10471;42.736;23.346;2024-03-22T05:54:16;27.53;;;13.70;;
20623;SDS011;10471;42.736;23.346;2024-03-22T05:56:41;33.40;;;14.17;;
20623;SDS011;10471;42.736;23.346;2024-03-22T05:59:06;37.87;;;17.20;;
20623;SDS011;10471;42.736;23.346;2024-03-22T06:01:32;31.00;;;16.80;;
20623;SDS011;10471;42.736;23.346;2024-03-22T06:03:57;38.10;;;15.70;;
20623;SDS011;10471;42.736;23.346;2024-03-22T06:06:23;34.13;;;16.53;;
20623;SDS011;10471;42.736;23.346;2024-03-22T06:08:50;34.00;;;16.50;;
20623;SDS011;10471;42.736;23.346;2024-03-22T06:11:18;33.63;;;14.97;;
20623;SDS011;10471;42.736;23.346;2024-03-22T06:13:44;28.20;;;13.60;;
20623;SDS011;10471;42.736;23.346;2024-03-22T06:16:09;29.00;;;12.97;;
20623;SDS011;10471;42.736;23.346;2024-03-22T06:18:35;31.57;;;12.83;;
20623;SDS011;10471;42.736;23.346;2024-03-22T06:21:00;20.83;;;11.60;;
20623;SDS011;10471;42.736;23.346;2024-03-22T06:23:25;24.63;;;11.70;;
20623;SDS011;10471;42.736;23.346;2024-03-22T06:25:54;20.57;;;11.73;;
20623;SDS011;10471;42.736;23.346;2024-03-22T06:28:20;17.87;;;11.27;;
20623;SDS011;10471;42.736;23.346;2024-03-22T06:30:46;19.20;;;11.83;;
20623;SDS011;10471;42.736;23.346;2024-03-22T06:33:12;18.27;;;10.57;;
20623;SDS011;10471;42.736;23.346;2024-03-22T06:35:37;19.07;;;10.57;;
20623;SDS011;10471;42.736;23.346;2024-03-22T06:38:03;22.80;;;12.07;;
20623;SDS011;10471;42.736;23.346;2024-03-22T06:40:29;21.83;;;10.60;;
20623;SDS011;10471;42.736;23.346;2024-03-22T06:42:55;18.27;;;11.00;;
20623;SDS011;10471;42.736;23.346;2024-03-22T06:45:20;17.73;;;10.73;;
20623;SDS011;10471;42.736;23.346;2024-03-22T06:47:46;19.70;;;11.20;;
20623;SDS011;10471;42.736;23.346;2024-03-22T06:50:11;19.50;;;11.23;;
20623;SDS011;10471;42.736;23.346;2024-03-22T06:52:38;18.53;;;11.50;;
20623;SDS011;10471;42.736;23.346;2024-03-22T06:55:03;20.77;;;10.60;;
20623;SDS011;10471;42.736;23.346;2024-03-22T06:57:29;23.07;;;11.80;;
20623;SDS011;10471;42.736;23.346;2024-03-22T06:59:55;16.57;;;10.20;;
20623;SDS011;10471;42.736;23.346;2024-03-22T07:02:21;18.70;;;10.33;;
20623;SDS011;10471;42.736;23.346;2024-03-22T07:04:47;19.83;;;9.37;;
20623;SDS011;10471;42.736;23.346;2024-03-22T07:07:12;16.23;;;9.30;;
20623;SDS011;10471;42.736;23.346;2024-03-22T07:09:38;14.67;;;8.70;;
20623;SDS011;10471;42.736;23.346;2024-03-22T07:12:04;14.80;;;9.07;;
20623;SDS011;10471;42.736;23.346;2024-03-22T07:14:30;20.20;;;10.13;;
20623;SDS011;10471;42.736;23.346;2024-03-22T07:16:55;16.00;;;9.00;;
20623;SDS011;10471;42.736;23.346;2024-03-22T07:19:20;11.87;;;8.50;;
20623;SDS011;10471;42.736;23.346;2024-03-22T07:21:49;19.97;;;9.80;;
20623;SDS011;10471;42.736;23.346;2024-03-22T07:24:14;15.60;;;9.20;;
20623;SDS011;10471;42.736;23.346;2024-03-22T07:26:39;12.80;;;8.60;;
20623;SDS011;10471;42.736;23.346;2024-03-22T07:29:05;13.83;;;8.43;;
20623;SDS011;10471;42.736;23.346;2024-03-22T07:31:30;12.80;;;8.30;;
20623;SDS011;10471;42.736;23.346;2024-03-22T07:33:56;14.70;;;9.07;;
20623;SDS011;10471;42.736;23.346;2024-03-22T07:36:21;12.37;;;8.40;;
20623;SDS011;10471;42.736;23.346;2024-03-22T07:38:47;16.50;;;8.57;;
20623;SDS011;10471;42.736;23.346;2024-03-22T07:41:14;13.43;;;8.17;;
20623;SDS011;10471;42.736;23.346;2024-03-22T07:43:39;13.70;;;8.10;;
20623;SDS011;10471;42.736;23.346;2024-03-22T07:46:05;15.60;;;8.87;;
20623;SDS011;10471;42.736;23.346;2024-03-22T07:48:30;12.13;;;8.17;;
20623;SDS011;10471;42.736;23.346;2024-03-22T07:50:59;11.40;;;7.37;;
20623;SDS011;10471;42.736;23.346;2024-03-22T07:53:25;11.57;;;7.10;;
20623;SDS011;10471;42.736;23.346;2024-03-22T07:55:50;10.37;;;6.10;;
20623;SDS011;10471;42.736;23.346;2024-03-22T07:58:16;9.10;;;6.10;;
20623;SDS011;10471;42.736;23.346;2024-03-22T08:00:41;8.83;;;5.70;;
20623;SDS011;10471;42.736;23.346;2024-03-22T08:03:07;6.77;;;4.60;;
20623;SDS011;10471;42.736;23.346;2024-03-22T08:05:33;8.50;;;5.30;;
20623;SDS011;10471;42.736;23.346;2024-03-22T08:07:58;8.63;;;6.10;;
20623;SDS011;10471;42.736;23.346;2024-03-22T08:10:24;12.07;;;7.63;;
20623;SDS011;10471;42.736;23.346;2024-03-22T08:12:49;84.73;;;33.23;;
20623;SDS011;10471;42.736;23.346;2024-03-22T08:15:14;15.13;;;8.73;;
20623;SDS011;10471;42.736;23.346;2024-03-22T08:17:40;9.80;;;5.87;;
20623;SDS011;10471;42.736;23.346;2024-03-22T08:20:06;5.23;;;3.70;;
20623;SDS011;10471;42.736;23.346;2024-03-22T08:22:32;9.57;;;4.63;;
20623;SDS011;10471;42.736;23.346;2024-03-22T08:24:57;7.57;;;3.80;;
20623;SDS011;10471;42.736;23.346;2024-03-22T08:27:23;5.53;;;3.90;;
20623;SDS011;10471;42.736;23.346;2024-03-22T08:29:49;7.30;;;4.07;;
20623;SDS011;10471;42.736;23.346;2024-03-22T08:32:15;6.53;;;4.10;;
20623;SDS011;10471;42.736;23.346;2024-03-22T08:34:40;9.17;;;4.37;;
20623;SDS011;10471;42.736;23.346;2024-03-22T08:37:06;8.00;;;4.77;;
20623;SDS011;10471;42.736;23.346;2024-03-22T08:39:32;7.17;;;4.30;;
20623;SDS011;10471;42.736;23.346;2024-03-22T08:41:58;6.13;;;3.83;;
20623;SDS011;10471;42.736;23.346;2024-03-22T08:44:23;6.87;;;4.07;;
20623;SDS011;10471;42.736;23.346;2024-03-22T08:46:48;8.03;;;4.97;;
20623;SDS011;10471;42.736;23.346;2024-03-22T08:49:14;16.97;;;8.63;;
20623;SDS011;10471;42.736;23.346;2024-03-22T08:51:40;6.63;;;4.00;;
20623;SDS011;10471;42.736;23.346;2024-03-22T08:54:06;8.47;;;4.03;;
20623;SDS011;10471;42.736;23.346;2024-03-22T08:56:31;5.47;;;4.17;;
20623;SDS011;10471;42.736;23.346;2024-03-22T08:58:57;7.20;;;4.07;;
20623;SDS011;10471;42.736;23.346;2024-03-22T09:01:22;6.33;;;4.30;;
20623;SDS011;10471;42.736;23.346;2024-03-22T09:03:48;30.60;;;13.13;;
20623;SDS011;10471;42.736;23.346;2024-03-22T09:06:14;13.43;;;6.70;;
20623;SDS011;10471;42.736;23.346;2024-03-22T09:08:39;9.33;;;4.77;;
20623;SDS011;10471;42.736;23.346;2024-03-22T09:11:05;7.33;;;4.33;;
20623;SDS011;10471;42.736;23.346;2024-03-22T09:13:30;6.60;;;4.30;;
20623;SDS011;10471;42.736;23.346;2024-03-22T09:15:57;5.43;;;4.13;;
20623;SDS011;10471;42.736;23.346;2024-03-22T09:18:23;6.10;;;3.93;;
20623;SDS011;10471;42.736;23.346;2024-03-22T09:20:49;6.13;;;4.10;;
20623;SDS011;10471;42.736;23.346;2024-03-22T09:23:14;8.77;;;4.20;;
20623;SDS011;10471;42.736;23.346;2024-03-22T09:25:40;7.13;;;4.73;;
20623;SDS011;10471;42.736;23.346;2024-03-22T09:28:05;5.40;;;3.80;;
20623;SDS011;10471;42.736;23.346;2024-03-22T09:30:32;5.77;;;4.10;;
20623;SDS011;10471;42.736;23.346;2024-03-22T09:32:57;7.07;;;4.13;;
20623;SDS011;10471;42.736;23.346;2024-03-22T09:35:23;11.37;;;3.97;;
20623;SDS011;10471;42.736;23.346;2024-03-22T09:37:48;5.83;;;4.30;;
20623;SDS011;10471;42.736;23.346;2024-03-22T09:40:13;8.03;;;4.67;;
20623;SDS011;10471;42.736;23.346;2024-03-22T09:42:41;6.13;;;3.40;;
20623;SDS011;10471;42.736;23.346;2024-03-22T09:45:10;4.77;;;3.80;;
20623;SDS011;10471;42.736;23.346;2024-03-22T09:47:36;7.27;;;3.80;;
20623;SDS011;10471;42.736;23.346;2024-03-22T09:50:03;7.43;;;3.83;;
20623;SDS011;10471;42.736;23.346;2024-03-22T09:52:31;4.97;;;3.40;;
20623;SDS011;10471;42.736;23.346;2024-03-22T09:54:58;7.50;;;4.00;;
20623;SDS011;10471;42.736;23.346;2024-03-22T09:57:24;6.30;;;4.13;;
20623;SDS011;10471;42.736;23.346;2024-03-22T09:59:49;6.17;;;3.90;;
20623;SDS011;10471;42.736;23.346;2024-03-22T10:02:15;7.13;;;4.17;;
20623;SDS011;10471;42.736;23.346;2024-03-22T10:04:41;7.03;;;4.07;;
20623;SDS011;10471;42.736;23.346;2024-03-22T10:07:07;4.03;;;3.57;;
20623;SDS011;10471;42.736;23.346;2024-03-22T10:09:36;6.63;;;3.83;;
20623;SDS011;10471;42.736;23.346;2024-03-22T10:12:02;6.53;;;3.53;;
20623;SDS011;10471;42.736;23.346;2024-03-22T10:14:29;5.93;;;3.90;;
20623;SDS011;10471;42.736;23.346;2024-03-22T10:16:56;4.97;;;3.60;;
20623;SDS011;10471;42.736;23.346;2024-03-22T10:19:22;6.43;;;3.93;;
20623;SDS011;10471;42.736;23.346;2024-03-22T10:21:48;8.30;;;4.10;;
20623;SDS011;10471;42.736;23.346;2024-03-22T10:24:25;6.93;;;3.77;;
20623;SDS011;10471;42.736;23.346;2024-03-22T10:26:50;5.70;;;3.90;;
20623;SDS011;10471;42.736;23.346;2024-03-22T10:29:15;4.87;;;3.67;;
20623;SDS011;10471;42.736;23.346;2024-03-22T10:31:41;5.97;;;3.90;;
20623;SDS011;10471;42.736;23.346;2024-03-22T10:34:07;8.23;;;4.73;;
20623;SDS011;10471;42.736;23.346;2024-03-22T10:36:36;5.70;;;3.87;;
20623;SDS011;10471;42.736;23.346;2024-03-22T10:39:01;6.03;;;4.03;;
20623;SDS011;10471;42.736;23.346;2024-03-22T10:41:29;5.83;;;3.70;;
20623;SDS011;10471;42.736;23.346;2024-03-22T10:43:54;7.60;;;3.50;;
20623;SDS011;10471;42.736;23.346;2024-03-22T10:46:20;5.93;;;3.40;;
20623;SDS011;10471;42.736;23.346;2024-03-22T10:48:46;6.07;;;3.33;;
20623;SDS011;10471;42.736;23.346;2024-03-22T10:51:12;6.07;;;3.67;;
20623;SDS011;10471;42.736;23.346;2024-03-22T10:53:40;6.27;;;3.80;;
20623;SDS011;10471;42.736;23.346;2024-03-22T10:56:07;5.27;;;3.60;;
20623;SDS011;10471;42.736;23.346;2024-03-22T10:58:34;8.13;;;3.80;;
20623;SDS011;10471;42.736;23.346;2024-03-22T11:01:05;4.70;;;3.07;;
20623;SDS011;10471;42.736;23.346;2024-03-22T11:03:30;5.53;;;3.70;;
20623;SDS011;10471;42.736;23.346;2024-03-22T11:05:58;5.07;;;3.40;;
20623;SDS011;10471;42.736;23.346;2024-03-22T11:08:24;4.50;;;3.30;;
20623;SDS011;10471;42.736;23.346;2024-03-22T11:10:51;7.70;;;4.33;;
20623;SDS011;10471;42.736;23.346;2024-03-22T11:13:17;6.73;;;3.53;;
20623;SDS011;10471;42.736;23.346;2024-03-22T11:15:43;4.37;;;3.13;;
20623;SDS011;10471;42.736;23.346;2024-03-22T11:18:08;4.50;;;3.27;;
20623;SDS011;10471;42.736;23.346;2024-03-22T11:20:37;4.37;;;3.27;;
20623;SDS011;10471;42.736;23.346;2024-03-22T11:23:06;4.17;;;3.20;;
20623;SDS011;10471;42.736;23.346;2024-03-22T11:25:32;5.07;;;3.50;;
20623;SDS011;10471;42.736;23.346;2024-03-22T11:27:58;5.97;;;3.37;;
20623;SDS011;10471;42.736;23.346;2024-03-22T11:30:25;5.90;;;3.60;;
20623;SDS011;10471;42.736;23.346;2024-03-22T11:32:54;9.67;;;3.67;;
20623;SDS011;10471;42.736;23.346;2024-03-22T11:35:20;5.93;;;3.40;;
20623;SDS011;10471;42.736;23.346;2024-03-22T11:37:47;4.53;;;3.27;;
20623;SDS011;10471;42.736;23.346;2024-03-22T11:40:12;3.67;;;3.33;;
20623;SDS011;10471;42.736;23.346;2024-03-22T11:42:38;6.27;;;3.40;;
20623;SDS011;10471;42.736;23.346;2024-03-22T11:45:06;6.40;;;3.43;;
20623;SDS011;10471;42.736;23.346;2024-03-22T11:47:35;7.53;;;3.60;;
20623;SDS011;10471;42.736;23.346;2024-03-22T11:50:01;4.63;;;3.77;;
20623;SDS011;10471;42.736;23.346;2024-03-22T11:52:27;6.27;;;3.73;;
20623;SDS011;10471;42.736;23.346;2024-03-22T11:54:53;5.73;;;3.57;;
20623;SDS011;10471;42.736;23.346;2024-03-22T11:57:20;5.27;;;3.53;;
20623;SDS011;10471;42.736;23.346;2024-03-22T11:59:45;8.03;;;3.63;;
20623;SDS011;10471;42.736;23.346;2024-03-22T12:02:11;4.73;;;3.90;;
20623;SDS011;10471;42.736;23.346;2024-03-22T12:04:40;4.43;;;3.47;;
20623;SDS011;10471;42.736;23.346;2024-03-22T12:07:08;6.07;;;3.90;;
20623;SDS011;10471;42.736;23.346;2024-03-22T12:09:35;3.73;;;3.27;;
20623;SDS011;10471;42.736;23.346;2024-03-22T12:12:00;5.57;;;3.50;;
20623;SDS011;10471;42.736;23.346;2024-03-22T12:14:26;6.20;;;3.10;;
20623;SDS011;10471;42.736;23.346;2024-03-22T12:16:51;6.10;;;3.83;;
20623;SDS011;10471;42.736;23.346;2024-03-22T12:19:16;4.93;;;3.50;;
20623;SDS011;10471;42.736;23.346;2024-03-22T12:21:42;6.97;;;3.20;;
20623;SDS011;10471;42.736;23.346;2024-03-22T12:24:07;4.67;;;3.47;;
20623;SDS011;10471;42.736;23.346;2024-03-22T12:26:33;3.87;;;3.23;;
20623;SDS011;10471;42.736;23.346;2024-03-22T12:28:58;3.30;;;3.00;;
20623;SDS011;10471;42.736;23.346;2024-03-22T12:31:23;3.80;;;3.10;;
20623;SDS011;10471;42.736;23.346;2024-03-22T12:33:49;5.17;;;3.63;;
20623;SDS011;10471;42.736;23.346;2024-03-22T12:36:14;4.13;;;3.20;;
20623;SDS011;10471;42.736;23.346;2024-03-22T12:38:40;4.27;;;3.20;;
20623;SDS011;10471;42.736;23.346;2024-03-22T12:41:05;4.77;;;3.00;;
20623;SDS011;10471;42.736;23.346;2024-03-22T12:43:32;3.70;;;3.00;;
20623;SDS011;10471;42.736;23.346;2024-03-22T12:45:57;7.70;;;3.37;;
20623;SDS011;10471;42.736;23.346;2024-03-22T12:48:23;4.13;;;3.50;;
20623;SDS011;10471;42.736;23.346;2024-03-22T12:50:48;4.67;;;3.73;;
20623;SDS011;10471;42.736;23.346;2024-03-22T12:53:13;4.60;;;3.67;;
20623;SDS011;10471;42.736;23.346;2024-03-22T12:55:39;5.23;;;3.50;;
20623;SDS011;10471;42.736;23.346;2024-03-22T12:58:04;6.93;;;3.40;;
20623;SDS011;10471;42.736;23.346;2024-03-22T13:00:30;5.93;;;3.60;;
20623;SDS011;10471;42.736;23.346;2024-03-22T13:02:55;5.63;;;3.57;;
20623;SDS011;10471;42.736;23.346;2024-03-22T13:05:21;5.10;;;3.40;;
20623;SDS011;10471;42.736;23.346;2024-03-22T13:07:46;5.37;;;3.43;;
20623;SDS011;10471;42.736;23.346;2024-03-22T13:10:12;6.90;;;4.10;;
20623;SDS011;10471;42.736;23.346;2024-03-22T13:12:37;4.70;;;3.50;;
20623;SDS011;10471;42.736;23.346;2024-03-22T13:15:03;5.53;;;3.67;;
20623;SDS011;10471;42.736;23.346;2024-03-22T13:17:29;5.37;;;3.37;;
20623;SDS011;10471;42.736;23.346;2024-03-22T13:19:55;3.80;;;3.40;;
20623;SDS011;10471;42.736;23.346;2024-03-22T13:22:20;5.50;;;4.10;;
20623;SDS011;10471;42.736;23.346;2024-03-22T13:24:45;5.07;;;3.67;;
20623;SDS011;10471;42.736;23.346;2024-03-22T13:27:11;5.37;;;3.43;;
20623;SDS011;10471;42.736;23.346;2024-03-22T13:29:38;7.27;;;4.10;;
20623;SDS011;10471;42.736;23.346;2024-03-22T13:32:06;5.10;;;3.73;;
20623;SDS011;10471;42.736;23.346;2024-03-22T13:34:35;6.47;;;3.80;;
20623;SDS011;10471;42.736;23.346;2024-03-22T13:37:01;5.30;;;3.93;;
20623;SDS011;10471;42.736;23.346;2024-03-22T13:39:27;5.17;;;3.80;;
20623;SDS011;10471;42.736;23.346;2024-03-22T13:41:54;7.97;;;3.37;;
20623;SDS011;10471;42.736;23.346;2024-03-22T13:44:20;3.80;;;3.40;;
20623;SDS011;10471;42.736;23.346;2024-03-22T13:46:46;5.77;;;3.40;;
20623;SDS011;10471;42.736;23.346;2024-03-22T13:49:16;7.10;;;3.63;;
20623;SDS011;10471;42.736;23.346;2024-03-22T13:51:42;5.87;;;3.60;;
20623;SDS011;10471;42.736;23.346;2024-03-22T13:54:07;6.77;;;3.83;;
20623;SDS011;10471;42.736;23.346;2024-03-22T13:56:33;7.67;;;3.87;;
20623;SDS011;10471;42.736;23.346;2024-03-22T13:58:58;5.90;;;3.10;;
20623;SDS011;10471;42.736;23.346;2024-03-22T14:01:23;4.90;;;3.37;;
20623;SDS011;10471;42.736;23.346;2024-03-22T14:03:49;5.73;;;3.50;;
20623;SDS011;10471;42.736;23.346;2024-03-22T14:06:14;5.37;;;3.53;;
20623;SDS011;10471;42.736;23.346;2024-03-22T14:08:39;4.40;;;3.33;;
20623;SDS011;10471;42.736;23.346;2024-03-22T14:11:05;5.13;;;3.27;;
20623;SDS011;10471;42.736;23.346;2024-03-22T14:13:30;5.33;;;3.33;;